createdAt,value
2022-09-01T00:00:16.646Z,8.30
2022-09-01T00:01:16.627Z,7.70
2022-09-01T00:02:16.671Z,8.40
2022-09-01T00:03:16.572Z,10.20
2022-09-01T00:04:16.618Z,9.00
2022-09-01T00:05:16.565Z,8.10
2022-09-01T00:06:16.531Z,8.70
2022-09-01T00:07:16.552Z,8.40
2022-09-01T00:08:18.376Z,8.40
2022-09-01T00:09:16.496Z,8.70
2022-09-01T00:10:16.508Z,8.40
2022-09-01T00:11:16.483Z,8.40
2022-09-01T00:12:16.470Z,7.90
2022-09-01T00:13:16.462Z,8.00
2022-09-01T00:14:30.626Z,8.10
2022-09-01T00:15:17.508Z,8.10
2022-09-01T00:16:16.491Z,8.40
2022-09-01T00:17:16.404Z,8.10
2022-09-01T00:18:16.525Z,8.20
2022-09-01T00:19:16.388Z,8.10
2022-09-01T00:20:20.313Z,7.90
2022-09-01T00:21:16.410Z,8.20
2022-09-01T00:22:16.382Z,8.20
2022-09-01T00:23:16.359Z,9.00
2022-09-01T00:24:16.351Z,8.10
2022-09-01T00:25:16.360Z,7.90
2022-09-01T00:26:16.384Z,7.70
2022-09-01T00:27:16.301Z,7.50
2022-09-01T00:28:16.334Z,8.50
2022-09-01T00:29:16.291Z,9.70
2022-09-01T00:30:16.278Z,8.30
2022-09-01T00:31:16.331Z,8.60
2022-09-01T00:32:16.266Z,8.20
2022-09-01T00:33:16.265Z,9.80
2022-09-01T00:34:16.221Z,8.90
2022-09-01T00:35:16.265Z,8.00
2022-09-01T00:36:16.282Z,10.10
2022-09-01T00:37:16.215Z,9.50
2022-09-01T00:38:16.270Z,8.80
2022-09-01T00:39:16.162Z,8.40
2022-09-01T00:40:16.249Z,8.70
2022-09-01T00:41:16.185Z,8.00
2022-09-01T00:42:16.146Z,8.90
2022-09-01T00:43:16.190Z,8.10
2022-09-01T00:44:16.110Z,8.60
2022-09-01T00:45:16.101Z,8.40
2022-09-01T00:46:18.315Z,8.60
2022-09-01T00:47:16.082Z,9.30
2022-09-01T00:48:16.211Z,9.90
2022-09-01T00:49:16.066Z,10.20
2022-09-01T00:50:16.052Z,10.00
2022-09-01T00:51:16.058Z,9.40
2022-09-01T00:52:16.049Z,10.00
2022-09-01T00:53:16.045Z,11.30
2022-09-01T00:54:16.046Z,11.70
2022-09-01T00:55:15.992Z,12.00
2022-09-01T00:56:16.013Z,10.80
2022-09-01T00:57:15.975Z,9.70
2022-09-01T00:58:19.580Z,9.70
2022-09-01T00:59:15.944Z,9.10
2022-09-01T01:00:15.936Z,9.10
2022-09-01T01:01:16.022Z,9.40
2022-09-01T01:02:16.037Z,8.90
2022-09-01T01:03:15.916Z,11.50
2022-09-01T01:04:15.922Z,11.90
2022-09-01T01:05:15.889Z,11.70
2022-09-01T01:06:15.879Z,12.60
2022-09-01T01:07:15.865Z,14.00
2022-09-01T01:08:15.926Z,12.80
2022-09-01T01:09:15.855Z,11.70
2022-09-01T01:10:15.832Z,12.20
2022-09-01T01:11:15.832Z,12.30
2022-09-01T01:12:15.811Z,12.10
2022-09-01T01:13:15.809Z,14.20
2022-09-01T01:14:15.822Z,13.60
2022-09-01T01:15:15.782Z,14.30
2022-09-01T01:16:15.838Z,14.20
2022-09-01T01:17:15.794Z,12.30
2022-09-01T01:18:22.867Z,12.90
2022-09-01T01:19:16.734Z,12.50
2022-09-01T01:20:15.722Z,13.30
2022-09-01T01:21:15.742Z,14.20
2022-09-01T01:22:15.728Z,14.40
2022-09-01T01:23:15.687Z,15.20
2022-09-01T01:24:15.676Z,16.40
2022-09-01T01:25:15.678Z,13.10
2022-09-01T01:26:15.680Z,12.20
2022-09-01T01:27:15.681Z,11.30
2022-09-01T01:28:15.660Z,10.30
2022-09-01T01:29:15.680Z,9.50
2022-09-01T01:30:15.616Z,9.90
2022-09-01T01:31:15.699Z,9.60
2022-09-01T01:32:15.591Z,10.10
2022-09-01T01:33:15.592Z,10.60
2022-09-01T01:34:15.576Z,9.60
2022-09-01T01:35:15.568Z,10.00
2022-09-01T01:36:15.580Z,10.80
2022-09-01T01:37:15.575Z,10.80
2022-09-01T01:38:15.534Z,10.60
2022-09-01T01:39:15.527Z,11.30
2022-09-01T01:40:15.708Z,12.50
2022-09-01T01:41:15.543Z,12.40
2022-09-01T01:42:15.507Z,12.00
2022-09-01T01:43:15.484Z,11.10
2022-09-01T01:44:15.477Z,11.80
2022-09-01T01:45:15.452Z,11.70
2022-09-01T01:46:15.551Z,11.90
2022-09-01T01:47:15.524Z,11.90
2022-09-01T01:48:15.426Z,12.70
2022-09-01T01:49:15.423Z,14.40
2022-09-01T01:50:15.452Z,14.60
2022-09-01T01:51:15.392Z,13.60
2022-09-01T01:52:15.394Z,13.10
2022-09-01T01:53:15.376Z,13.30
2022-09-01T01:54:15.361Z,13.10
2022-09-01T01:55:15.344Z,13.00
2022-09-01T01:56:15.374Z,13.90
2022-09-01T01:57:15.348Z,13.80
2022-09-01T01:58:15.315Z,12.80
2022-09-01T01:59:15.307Z,13.60
2022-09-01T02:00:15.310Z,15.50
2022-09-01T02:01:15.373Z,14.20
2022-09-01T02:02:15.353Z,14.30
2022-09-01T02:03:15.285Z,15.70
2022-09-01T02:04:15.260Z,15.10
2022-09-01T02:05:15.238Z,16.60
2022-09-01T02:06:15.282Z,15.00
2022-09-01T02:07:15.244Z,16.40
2022-09-01T02:08:15.204Z,15.60
2022-09-01T02:09:15.196Z,17.10
2022-09-01T02:10:15.181Z,17.20
2022-09-01T02:11:15.197Z,16.80
2022-09-01T02:12:16.056Z,14.60
2022-09-01T02:13:15.199Z,14.70
2022-09-01T02:14:15.159Z,14.30
2022-09-01T02:15:15.137Z,14.50
2022-09-01T02:16:15.200Z,15.70
2022-09-01T02:17:15.108Z,15.40
2022-09-01T02:18:15.136Z,17.00
2022-09-01T02:19:15.090Z,18.00
2022-09-01T02:20:15.100Z,18.50
2022-09-01T02:21:18.349Z,16.90
2022-09-01T02:22:15.078Z,17.20
2022-09-01T02:23:15.055Z,15.90
2022-09-01T02:24:15.098Z,16.90
2022-09-01T02:25:15.026Z,16.90
2022-09-01T02:26:16.866Z,18.20
2022-09-01T02:27:15.064Z,17.40
2022-09-01T02:28:15.008Z,19.70
2022-09-01T02:29:14.988Z,19.30
2022-09-01T02:30:14.994Z,21.50
2022-09-01T02:31:15.071Z,20.80
2022-09-01T02:32:14.952Z,21.80
2022-09-01T02:33:14.940Z,21.40
2022-09-01T02:34:14.990Z,17.90
2022-09-01T02:35:14.947Z,17.80
2022-09-01T02:36:14.922Z,18.20
2022-09-01T02:37:14.916Z,19.10
2022-09-01T02:38:14.899Z,17.00
2022-09-01T02:39:14.882Z,16.30
2022-09-01T02:40:14.903Z,16.40
2022-09-01T02:41:14.866Z,17.20
2022-09-01T02:42:14.895Z,18.10
2022-09-01T02:43:14.838Z,17.00
2022-09-01T02:44:14.845Z,17.20
2022-09-01T02:45:14.865Z,16.80
2022-09-01T02:46:14.975Z,17.10
2022-09-01T02:47:14.793Z,16.20
2022-09-01T02:48:14.792Z,15.30
2022-09-01T02:49:14.772Z,13.60
2022-09-01T02:50:14.810Z,14.20
2022-09-01T02:51:14.785Z,13.60
2022-09-01T02:52:14.766Z,13.50
2022-09-01T02:53:14.721Z,13.70
2022-09-01T02:54:14.745Z,13.50
2022-09-01T02:55:14.707Z,12.50
2022-09-01T02:56:14.694Z,12.60
2022-09-01T02:57:14.688Z,12.40
2022-09-01T02:58:14.688Z,14.30
2022-09-01T02:59:14.724Z,14.40
2022-09-01T03:00:14.661Z,13.90
2022-09-01T03:01:14.702Z,15.20
2022-09-01T03:02:14.659Z,14.30
2022-09-01T03:03:14.631Z,15.30
2022-09-01T03:04:14.627Z,15.10
2022-09-01T03:05:14.629Z,17.00
2022-09-01T03:06:14.580Z,15.10
2022-09-01T03:07:14.574Z,13.90
2022-09-01T03:08:14.571Z,15.30
2022-09-01T03:09:14.588Z,14.30
2022-09-01T03:10:14.526Z,15.00
2022-09-01T03:11:14.545Z,15.80
2022-09-01T03:12:14.544Z,13.70
2022-09-01T03:13:14.510Z,15.20
2022-09-01T03:14:14.556Z,18.90
2022-09-01T03:15:14.479Z,18.70
2022-09-01T03:16:14.644Z,16.90
2022-09-01T03:17:14.464Z,15.80
2022-09-01T03:18:14.502Z,14.80
2022-09-01T03:19:14.474Z,15.40
2022-09-01T03:20:14.482Z,14.70
2022-09-01T03:21:14.456Z,14.40
2022-09-01T03:22:14.441Z,14.50
2022-09-01T03:23:14.396Z,14.90
2022-09-01T03:24:14.429Z,13.90
2022-09-01T03:25:14.373Z,15.10
2022-09-01T03:26:14.419Z,16.40
2022-09-01T03:27:14.390Z,20.20
2022-09-01T03:28:14.354Z,19.10
2022-09-01T03:29:14.349Z,15.40
2022-09-01T03:30:14.332Z,16.10
2022-09-01T03:31:14.454Z,15.50
2022-09-01T03:32:14.355Z,15.60
2022-09-01T03:33:14.301Z,18.30
2022-09-01T03:34:14.277Z,18.20
2022-09-01T03:35:14.266Z,19.80
2022-09-01T03:36:15.454Z,19.50
2022-09-01T03:37:14.275Z,19.60
2022-09-01T03:38:14.229Z,17.50
2022-09-01T03:39:16.794Z,17.70
2022-09-01T03:40:14.301Z,22.00
2022-09-01T03:41:14.218Z,18.00
2022-09-01T03:42:14.213Z,18.50
2022-09-01T03:43:14.171Z,18.80
2022-09-01T03:44:14.219Z,17.30
2022-09-01T03:45:14.150Z,16.40
2022-09-01T03:46:14.248Z,21.80
2022-09-01T03:47:14.152Z,22.60
2022-09-01T03:48:14.143Z,19.10
2022-09-01T03:49:14.183Z,18.70
2022-09-01T03:50:14.105Z,18.30
2022-09-01T03:51:14.118Z,17.60
2022-09-01T03:52:14.089Z,17.40
2022-09-01T03:53:14.105Z,16.80
2022-09-01T03:54:14.084Z,16.60
2022-09-01T03:55:14.051Z,16.80
2022-09-01T03:56:14.147Z,16.60
2022-09-01T03:57:14.429Z,17.60
2022-09-01T03:58:14.023Z,17.90
2022-09-01T03:59:14.001Z,17.10
2022-09-01T04:00:14.008Z,17.80
2022-09-01T04:01:14.102Z,17.00
2022-09-01T04:02:14.051Z,16.70
2022-09-01T04:03:13.955Z,17.40
2022-09-01T04:04:14.081Z,16.70
2022-09-01T04:05:14.002Z,16.60
2022-09-01T04:06:14.020Z,17.00
2022-09-01T04:07:19.265Z,18.00
2022-09-01T04:08:14.918Z,18.00
2022-09-01T04:09:13.960Z,16.60
2022-09-01T04:10:13.918Z,17.00
2022-09-01T04:11:13.929Z,17.40
2022-09-01T04:12:13.884Z,16.20
2022-09-01T04:13:13.883Z,16.40
2022-09-01T04:14:13.913Z,16.30
2022-09-01T04:15:13.852Z,15.40
2022-09-01T04:16:13.883Z,16.70
2022-09-01T04:17:13.834Z,15.70
2022-09-01T04:18:13.821Z,16.00
2022-09-01T04:19:13.787Z,16.10
2022-09-01T04:20:13.770Z,16.30
2022-09-01T04:21:13.786Z,20.90
2022-09-01T04:22:13.801Z,18.50
2022-09-01T04:23:13.757Z,18.00
2022-09-01T04:24:13.755Z,18.70
2022-09-01T04:25:13.732Z,17.20
2022-09-01T04:26:13.725Z,18.40
2022-09-01T04:27:13.778Z,19.40
2022-09-01T04:28:13.712Z,22.40
2022-09-01T04:29:13.703Z,21.50
2022-09-01T04:30:13.676Z,23.30
2022-09-01T04:31:13.750Z,24.30
2022-09-01T04:32:13.657Z,22.50
2022-09-01T04:33:13.640Z,23.20
2022-09-01T04:34:13.652Z,25.20
2022-09-01T04:35:13.649Z,25.00
2022-09-01T04:36:13.620Z,24.30
2022-09-01T04:37:13.624Z,25.60
2022-09-01T04:38:13.653Z,28.00
2022-09-01T04:39:13.601Z,25.90
2022-09-01T04:40:13.660Z,21.70
2022-09-01T04:41:13.614Z,20.40
2022-09-01T04:42:13.544Z,23.50
2022-09-01T04:43:13.550Z,27.80
2022-09-01T04:44:13.569Z,26.20
2022-09-01T04:45:17.365Z,25.40
2022-09-01T04:46:14.596Z,27.90
2022-09-01T04:47:13.489Z,28.00
2022-09-01T04:48:13.501Z,43.00
2022-09-01T04:49:13.508Z,40.70
2022-09-01T04:50:13.454Z,48.10
2022-09-01T04:51:13.465Z,54.10
2022-09-01T04:52:13.478Z,73.10
2022-09-01T04:53:13.451Z,148.80
2022-09-01T04:54:13.414Z,106.30
2022-09-01T04:55:13.409Z,75.80
2022-09-01T04:56:13.425Z,112.80
2022-09-01T04:57:13.384Z,108.60
2022-09-01T04:58:13.397Z,161.50
2022-09-01T04:59:13.393Z,279.50
2022-09-01T05:00:13.341Z,114.10
2022-09-01T05:01:13.409Z,78.00
2022-09-01T05:02:13.388Z,76.40
2022-09-01T05:03:13.356Z,213.50
2022-09-01T05:04:13.313Z,62.50
2022-09-01T05:05:13.289Z,193.80
2022-09-01T05:06:13.289Z,159.10
2022-09-01T05:07:13.281Z,259.00
2022-09-01T05:08:13.245Z,184.40
2022-09-01T05:09:14.292Z,101.30
2022-09-01T05:10:13.225Z,80.30
2022-09-01T05:11:13.289Z,107.30
2022-09-01T05:12:15.982Z,95.00
2022-09-01T05:13:13.216Z,107.10
2022-09-01T05:14:13.196Z,137.20
2022-09-01T05:15:13.173Z,115.40
2022-09-01T05:16:13.580Z,99.70
2022-09-01T05:17:13.163Z,108.40
2022-09-01T05:18:13.143Z,101.90
2022-09-01T05:19:13.138Z,296.80
2022-09-01T05:20:13.166Z,191.90
2022-09-01T05:21:13.148Z,85.50
2022-09-01T05:22:13.099Z,76.70
2022-09-01T05:23:13.101Z,90.90
2022-09-01T05:24:13.082Z,91.70
2022-09-01T05:25:13.097Z,137.20
2022-09-01T05:26:13.086Z,198.50
2022-09-01T05:27:13.066Z,102.20
2022-09-01T05:28:13.181Z,92.10
2022-09-01T05:29:13.005Z,83.10
2022-09-01T05:30:13.037Z,177.40
2022-09-01T05:31:13.114Z,287.50
2022-09-01T05:32:13.057Z,167.50
2022-09-01T05:33:12.975Z,73.40
2022-09-01T05:34:13.786Z,85.70
2022-09-01T05:35:12.976Z,92.60
2022-09-01T05:36:12.934Z,85.90
2022-09-01T05:37:13.057Z,80.50
2022-09-01T05:38:12.967Z,84.40
2022-09-01T05:39:12.931Z,74.60
2022-09-01T05:40:12.976Z,129.60
2022-09-01T05:41:12.894Z,192.10
2022-09-01T05:42:12.898Z,109.20
2022-09-01T05:43:12.969Z,119.20
2022-09-01T05:44:12.852Z,82.10
2022-09-01T05:45:12.860Z,78.70
2022-09-01T05:46:12.973Z,73.50
2022-09-01T05:47:14.770Z,78.50
2022-09-01T05:48:13.811Z,108.20
2022-09-01T05:49:12.847Z,130.40
2022-09-01T05:50:15.411Z,68.80
2022-09-01T05:51:33.524Z,67.60
2022-09-01T05:52:14.045Z,87.50
2022-09-01T05:53:12.851Z,116.00
2022-09-01T05:54:12.752Z,98.10
2022-09-01T05:55:12.736Z,87.10
2022-09-01T05:56:12.945Z,118.40
2022-09-01T05:57:33.149Z,103.30
2022-09-01T05:58:13.805Z,90.20
2022-09-01T05:59:28.361Z,119.20
2022-09-01T06:00:13.708Z,98.60
2022-09-01T06:01:12.686Z,65.10
2022-09-01T06:02:12.788Z,70.10
2022-09-01T06:03:12.932Z,56.40
2022-09-01T06:04:12.639Z,58.20
2022-09-01T06:05:12.655Z,61.20
2022-09-01T06:06:12.656Z,74.50
2022-09-01T06:07:15.717Z,56.90
2022-09-01T06:08:12.952Z,54.70
2022-09-01T06:09:12.584Z,58.80
2022-09-01T06:10:12.577Z,62.30
2022-09-01T06:11:12.579Z,64.20
2022-09-01T06:12:12.577Z,230.60
2022-09-01T06:13:12.567Z,94.40
2022-09-01T06:14:12.550Z,124.80
2022-09-01T06:15:12.555Z,58.60
2022-09-01T06:16:12.679Z,66.60
2022-09-01T06:17:13.565Z,60.10
2022-09-01T06:18:12.495Z,82.60
2022-09-01T06:19:12.482Z,69.30
2022-09-01T06:20:12.460Z,75.50
2022-09-01T06:21:12.461Z,61.50
2022-09-01T06:22:12.597Z,82.40
2022-09-01T06:23:12.531Z,56.90
2022-09-01T06:24:12.460Z,52.80
2022-09-01T06:25:12.507Z,68.20
2022-09-01T06:26:12.646Z,84.10
2022-09-01T06:27:12.382Z,113.90
2022-09-01T06:28:12.371Z,79.30
2022-09-01T06:29:12.365Z,64.10
2022-09-01T06:30:12.389Z,52.70
2022-09-01T06:31:12.404Z,53.30
2022-09-01T06:32:12.393Z,51.20
2022-09-01T06:33:12.456Z,53.00
2022-09-01T06:34:12.408Z,53.30
2022-09-01T06:35:12.920Z,45.90
2022-09-01T06:36:12.304Z,33.30
2022-09-01T06:37:12.286Z,44.50
2022-09-01T06:38:12.274Z,33.30
2022-09-01T06:39:12.285Z,34.60
2022-09-01T06:40:12.315Z,36.00
2022-09-01T06:41:12.275Z,33.30
2022-09-01T06:42:12.327Z,30.00
2022-09-01T06:43:13.338Z,37.90
2022-09-01T06:44:14.641Z,29.90
2022-09-01T06:45:12.194Z,23.50
2022-09-01T06:46:12.268Z,24.00
2022-09-01T06:47:12.174Z,24.30
2022-09-01T06:48:12.186Z,25.00
2022-09-01T06:49:12.214Z,26.90
2022-09-01T06:50:12.259Z,30.70
2022-09-01T06:51:17.097Z,22.30
2022-09-01T06:52:13.197Z,25.90
2022-09-01T06:54:14.735Z,22.00
2022-09-01T06:55:12.073Z,22.40
2022-09-01T06:56:12.063Z,20.80
2022-09-01T06:58:14.007Z,22.90
2022-09-01T06:59:12.044Z,23.60
2022-09-01T07:00:12.194Z,24.50
2022-09-01T07:01:12.367Z,21.70
2022-09-01T07:02:17.228Z,22.20
2022-09-01T07:03:13.104Z,21.40
2022-09-01T07:04:13.382Z,23.30
2022-09-01T07:05:58.863Z,23.60
2022-09-01T07:06:59.079Z,20.60
2022-09-01T07:08:13.000Z,22.30
2022-09-01T07:09:20.181Z,23.90
2022-09-01T07:12:07.139Z,20.90
2022-09-01T07:12:28.373Z,19.10
2022-09-01T07:13:12.902Z,18.50
2022-09-01T07:14:15.666Z,19.10
2022-09-01T07:17:28.144Z,19.10
2022-09-01T07:18:14.223Z,15.70
2022-09-01T07:19:12.335Z,14.60
2022-09-01T07:20:27.607Z,15.50
2022-09-01T07:22:35.845Z,15.50
2022-09-01T07:23:12.776Z,15.80
2022-09-01T07:24:11.813Z,15.90
2022-09-01T07:25:12.750Z,15.40
2022-09-01T07:26:11.771Z,13.70
2022-09-01T07:27:11.798Z,14.20
2022-09-01T07:28:25.436Z,14.20
2022-09-01T07:29:12.733Z,15.20
2022-09-01T07:30:11.701Z,15.30
2022-09-01T07:35:12.649Z,13.20
2022-09-01T07:36:27.975Z,11.70
2022-09-01T07:42:59.234Z,24.50
2022-09-01T07:43:12.987Z,11.60
2022-09-01T07:44:11.593Z,11.60
2022-09-01T07:45:27.861Z,11.10
2022-09-01T07:47:20.557Z,11.60
2022-09-01T07:48:36.055Z,10.50
2022-09-01T07:50:37.029Z,9.50
2022-09-01T07:52:12.475Z,9.00
2022-09-01T07:53:11.601Z,10.00
2022-09-01T07:54:11.778Z,10.90
2022-09-01T07:55:11.595Z,11.00
2022-09-01T07:56:11.433Z,11.00
2022-09-01T07:57:11.421Z,10.30
2022-09-01T07:58:11.397Z,10.10
2022-09-01T07:59:15.367Z,10.90
2022-09-01T08:00:11.385Z,11.00
2022-09-01T08:01:11.430Z,10.90
2022-09-01T08:02:11.596Z,12.10
2022-09-01T08:03:11.547Z,11.10
2022-09-01T08:04:13.007Z,14.60
2022-09-01T08:05:11.321Z,10.50
2022-09-01T08:06:11.349Z,10.70
2022-09-01T08:07:15.442Z,9.20
2022-09-01T08:08:18.840Z,10.10
2022-09-01T08:09:17.302Z,8.50
2022-09-01T08:10:12.277Z,8.80
2022-09-01T08:11:11.344Z,8.70
2022-09-01T08:12:11.597Z,9.20
2022-09-01T08:13:15.248Z,8.90
2022-09-01T08:14:11.226Z,9.10
2022-09-01T08:15:41.187Z,9.80
2022-09-01T08:16:19.521Z,8.90
2022-09-01T08:18:14.354Z,8.50
2022-09-01T08:19:18.363Z,7.70
2022-09-01T08:20:14.085Z,8.70
2022-09-01T08:21:13.036Z,8.20
2022-09-01T08:22:12.996Z,8.50
2022-09-01T08:23:11.137Z,8.10
2022-09-01T08:24:11.122Z,7.70
2022-09-01T08:25:11.116Z,9.30
2022-09-01T08:26:11.103Z,7.90
2022-09-01T08:27:11.087Z,8.30
2022-09-01T08:28:11.083Z,8.50
2022-09-01T08:29:11.171Z,8.10
2022-09-01T08:30:14.273Z,8.50
2022-09-01T08:31:11.544Z,7.30
2022-09-01T08:32:11.032Z,7.90
2022-09-01T08:33:11.098Z,7.40
2022-09-01T08:34:11.017Z,7.20
2022-09-01T08:35:11.094Z,7.90
2022-09-01T08:36:10.983Z,7.50
2022-09-01T08:37:10.997Z,7.30
2022-09-01T08:38:11.522Z,6.90
2022-09-01T08:39:12.029Z,7.30
2022-09-01T08:40:11.163Z,7.20
2022-09-01T08:41:10.969Z,7.00
2022-09-01T08:42:10.937Z,7.10
2022-09-01T08:43:19.506Z,7.40
2022-09-01T08:44:11.911Z,7.40
2022-09-01T08:45:10.941Z,7.70
2022-09-01T08:46:10.946Z,6.80
2022-09-01T08:47:13.627Z,6.60
2022-09-01T08:49:25.369Z,6.80
2022-09-01T08:50:11.907Z,7.10
2022-09-01T08:51:15.089Z,6.30
2022-09-01T08:52:11.834Z,7.10
2022-09-01T08:53:10.845Z,6.30
2022-09-01T08:54:10.827Z,7.40
2022-09-01T08:55:10.838Z,7.40
2022-09-01T08:56:11.045Z,6.30
2022-09-01T08:57:11.083Z,5.80
2022-09-01T08:58:10.774Z,6.10
2022-09-01T08:59:10.751Z,6.30
2022-09-01T09:00:10.802Z,6.00
2022-09-01T09:01:10.837Z,5.90
2022-09-01T09:02:10.726Z,6.40
2022-09-01T09:03:10.802Z,6.40
2022-09-01T09:04:10.718Z,5.70
2022-09-01T09:05:15.797Z,6.10
2022-09-01T09:06:10.842Z,6.00
2022-09-01T09:07:10.673Z,6.60
2022-09-01T09:08:10.654Z,6.00
2022-09-01T09:09:10.665Z,6.60
2022-09-01T09:10:10.731Z,5.90
2022-09-01T09:11:10.612Z,7.90
2022-09-01T09:12:10.651Z,5.60
2022-09-01T09:13:11.003Z,6.60
2022-09-01T09:14:10.916Z,6.10
2022-09-01T09:15:10.793Z,5.90
2022-09-01T09:16:10.645Z,6.20
2022-09-01T09:17:10.565Z,6.10
2022-09-01T09:18:34.438Z,6.30
2022-09-01T09:19:10.587Z,6.90
2022-09-01T09:20:10.565Z,7.00
2022-09-01T09:21:10.496Z,6.70
2022-09-01T09:22:11.503Z,8.30
2022-09-01T09:23:11.330Z,6.40
2022-09-01T09:24:10.673Z,7.00
2022-09-01T09:25:10.485Z,6.50
2022-09-01T09:26:10.932Z,5.90
2022-09-01T09:27:11.197Z,5.60
2022-09-01T09:28:10.485Z,6.20
2022-09-01T09:29:10.421Z,5.70
2022-09-01T09:30:11.724Z,5.20
2022-09-01T09:31:12.043Z,6.10
2022-09-01T09:32:44.369Z,5.80
2022-09-01T09:34:11.387Z,8.70
2022-09-01T09:35:10.377Z,8.90
2022-09-01T09:36:10.345Z,5.80
2022-09-01T09:37:10.376Z,7.90
2022-09-01T09:38:10.355Z,5.20
2022-09-01T09:39:10.312Z,4.90
2022-09-01T09:40:12.899Z,4.80
2022-09-01T09:41:17.316Z,5.40
2022-09-01T09:42:11.391Z,5.00
2022-09-01T09:43:10.295Z,4.80
2022-09-01T09:44:11.465Z,5.10
2022-09-01T09:45:10.273Z,6.10
2022-09-01T09:46:23.347Z,4.50
2022-09-01T09:47:33.575Z,4.40
2022-09-01T09:48:11.281Z,4.80
2022-09-01T09:49:10.265Z,4.60
2022-09-01T09:50:10.628Z,4.40
2022-09-01T09:51:10.366Z,4.20
2022-09-01T09:52:10.320Z,5.10
2022-09-01T09:53:10.175Z,5.20
2022-09-01T09:54:10.186Z,5.00
2022-09-01T09:55:10.188Z,6.30
2022-09-01T09:56:10.147Z,5.00
2022-09-01T09:57:10.132Z,5.50
2022-09-01T09:58:12.547Z,5.70
2022-09-01T09:59:10.831Z,6.00
2022-09-01T10:00:11.269Z,5.80
2022-09-01T10:01:10.130Z,5.10
2022-09-01T10:02:10.077Z,6.70
2022-09-01T10:03:11.251Z,4.80
2022-09-01T10:04:10.169Z,4.80
2022-09-01T10:05:10.081Z,4.70
2022-09-01T10:06:10.059Z,4.60
2022-09-01T10:07:10.169Z,4.60
2022-09-01T10:08:12.264Z,4.90
2022-09-01T10:09:10.035Z,4.70
2022-09-01T10:10:09.994Z,5.20
2022-09-01T10:11:10.002Z,4.50
2022-09-01T10:12:10.026Z,5.00
2022-09-01T10:13:09.962Z,4.60
2022-09-01T10:14:10.053Z,4.40
2022-09-01T10:15:12.698Z,4.90
2022-09-01T10:16:11.312Z,5.10
2022-09-01T10:17:13.125Z,5.60
2022-09-01T10:18:20.033Z,5.30
2022-09-01T10:19:12.800Z,4.90
2022-09-01T10:20:11.353Z,5.20
2022-09-01T10:21:09.905Z,5.30
2022-09-01T10:22:09.907Z,5.00
2022-09-01T10:23:15.332Z,5.70
2022-09-01T10:24:21.002Z,4.60
2022-09-01T10:25:10.961Z,5.20
2022-09-01T10:26:10.246Z,5.30
2022-09-01T10:27:13.936Z,5.50
2022-09-01T10:28:10.802Z,5.30
2022-09-01T10:29:12.111Z,5.80
2022-09-01T10:30:14.504Z,5.00
2022-09-01T10:31:11.137Z,5.00
2022-09-01T10:32:31.300Z,5.30
2022-09-01T10:33:19.276Z,4.90
2022-09-01T10:34:11.730Z,5.20
2022-09-01T10:35:09.892Z,5.60
2022-09-01T10:36:09.738Z,5.50
2022-09-01T10:37:11.211Z,5.70
2022-09-01T10:38:17.469Z,4.90
2022-09-01T10:39:10.689Z,4.70
2022-09-01T10:40:09.751Z,5.40
2022-09-01T10:41:14.154Z,5.00
2022-09-01T10:42:12.981Z,5.50
2022-09-01T10:43:13.021Z,4.90
2022-09-01T10:44:10.297Z,4.50
2022-09-01T10:45:09.651Z,4.40
2022-09-01T10:46:15.279Z,4.60
2022-09-01T10:47:13.805Z,4.50
2022-09-01T10:48:13.292Z,4.30
2022-09-01T10:49:09.768Z,4.50
2022-09-01T10:50:09.750Z,4.80
2022-09-01T10:51:09.780Z,4.50
2022-09-01T10:52:14.015Z,4.60
2022-09-01T10:53:09.883Z,4.60
2022-09-01T10:54:09.547Z,4.80
2022-09-01T10:55:09.566Z,4.60
2022-09-01T10:56:23.455Z,4.60
2022-09-01T10:57:12.195Z,5.30
2022-09-01T10:59:30.891Z,4.60
2022-09-01T10:59:44.277Z,4.20
2022-09-01T11:00:34.795Z,4.40
2022-09-01T11:01:11.374Z,4.00
2022-09-01T11:02:27.674Z,4.20
2022-09-01T11:04:10.561Z,4.10
2022-09-01T11:05:09.525Z,4.00
2022-09-01T11:06:13.130Z,4.40
2022-09-01T11:07:12.769Z,3.70
2022-09-01T11:08:16.467Z,3.80
2022-09-01T11:09:10.431Z,3.90
2022-09-01T11:10:31.618Z,3.90
2022-09-01T11:11:10.898Z,3.80
2022-09-01T11:12:09.378Z,4.10
2022-09-01T11:13:09.352Z,3.80
2022-09-01T11:14:09.330Z,3.70
2022-09-01T11:15:09.325Z,3.70
2022-09-01T11:16:10.170Z,3.40
2022-09-01T11:17:09.769Z,5.30
2022-09-01T11:18:10.329Z,3.70
2022-09-01T11:19:16.053Z,4.10
2022-09-01T11:20:10.710Z,4.10
2022-09-01T11:21:09.279Z,4.90
2022-09-01T11:22:09.255Z,8.50
2022-09-01T11:23:09.240Z,4.00
2022-09-01T11:24:09.252Z,4.00
2022-09-01T11:25:12.004Z,3.50
2022-09-01T11:26:24.719Z,4.20
2022-09-01T11:27:10.738Z,3.70
2022-09-01T11:28:09.204Z,3.60
2022-09-01T11:29:09.182Z,3.70
2022-09-01T11:30:09.207Z,3.90
2022-09-01T11:31:09.198Z,4.00
2022-09-01T11:32:09.227Z,3.90
2022-09-01T11:33:09.165Z,4.00
2022-09-01T11:34:09.128Z,4.00
2022-09-01T11:35:09.143Z,3.80
2022-09-01T11:36:10.344Z,3.70
2022-09-01T11:37:09.115Z,4.10
2022-09-01T11:38:09.158Z,3.90
2022-09-01T11:39:09.081Z,3.50
2022-09-01T11:40:09.149Z,4.00
2022-09-01T11:41:09.080Z,3.80
2022-09-01T11:42:09.053Z,4.00
2022-09-01T11:43:12.525Z,3.80
2022-09-01T11:44:09.773Z,3.50
2022-09-01T11:45:12.827Z,3.70
2022-09-01T11:46:10.108Z,3.30
2022-09-01T11:47:13.636Z,3.40
2022-09-01T11:48:09.994Z,3.50
2022-09-01T11:49:09.009Z,3.00
2022-09-01T11:50:08.973Z,3.20
2022-09-01T11:51:08.974Z,3.20
2022-09-01T11:52:09.957Z,3.40
2022-09-01T11:53:09.101Z,3.10
2022-09-01T11:54:09.288Z,3.10
2022-09-01T11:55:08.938Z,3.20
2022-09-01T11:56:08.930Z,3.30
2022-09-01T11:57:08.924Z,3.20
2022-09-01T11:58:08.891Z,3.90
2022-09-01T11:59:08.889Z,3.30
2022-09-01T12:00:08.905Z,3.50
2022-09-01T12:01:09.002Z,3.20
2022-09-01T12:02:09.431Z,3.20
2022-09-01T12:03:09.563Z,3.40
2022-09-01T12:04:09.285Z,4.20
2022-09-01T12:05:08.850Z,3.10
2022-09-01T12:06:08.869Z,3.20
2022-09-01T12:07:10.856Z,4.30
2022-09-01T12:08:08.825Z,3.90
2022-09-01T12:09:08.781Z,3.00
2022-09-01T12:10:08.823Z,3.40
2022-09-01T12:11:09.258Z,3.10
2022-09-01T12:12:09.527Z,3.00
2022-09-01T12:13:08.786Z,3.00
2022-09-01T12:14:11.361Z,2.90
2022-09-01T12:15:08.723Z,3.30
2022-09-01T12:16:21.114Z,3.10
2022-09-01T12:17:09.764Z,3.30
2022-09-01T12:18:08.695Z,3.10
2022-09-01T12:19:08.753Z,2.90
2022-09-01T12:20:09.118Z,3.00
2022-09-01T12:21:09.725Z,2.70
2022-09-01T12:22:09.762Z,2.80
2022-09-01T12:23:08.651Z,3.10
2022-09-01T12:24:08.636Z,3.00
2022-09-01T12:25:08.624Z,3.10
2022-09-01T12:26:08.635Z,3.00
2022-09-01T12:27:08.600Z,3.00
2022-09-01T12:28:11.110Z,2.70
2022-09-01T12:29:08.732Z,3.10
2022-09-01T12:30:08.945Z,3.20
2022-09-01T12:31:09.246Z,3.00
2022-09-01T12:32:08.587Z,2.90
2022-09-01T12:33:24.406Z,2.90
2022-09-01T12:34:09.548Z,3.20
2022-09-01T12:35:11.510Z,3.10
2022-09-01T12:36:08.523Z,2.70
2022-09-01T12:37:08.540Z,3.00
2022-09-01T12:38:09.722Z,3.30
2022-09-01T12:39:09.869Z,3.00
2022-09-01T12:40:09.214Z,2.90
2022-09-01T12:41:08.558Z,2.90
2022-09-01T12:42:08.469Z,3.20
2022-09-01T12:43:08.439Z,2.90
2022-09-01T12:44:08.465Z,3.00
2022-09-01T12:45:09.049Z,2.90
2022-09-01T12:46:08.597Z,2.70
2022-09-01T12:47:09.328Z,2.90
2022-09-01T12:48:09.846Z,3.30
2022-09-01T12:49:08.421Z,2.90
2022-09-01T12:50:08.385Z,2.70
2022-09-01T12:51:09.410Z,2.90
2022-09-01T12:52:08.347Z,2.70
2022-09-01T12:53:08.548Z,2.60
2022-09-01T12:54:09.449Z,2.30
2022-09-01T12:55:08.319Z,2.10
2022-09-01T12:56:10.019Z,2.20
2022-09-01T12:57:08.347Z,2.40
2022-09-01T12:58:08.388Z,2.40
2022-09-01T12:59:14.207Z,2.40
2022-09-01T13:00:09.273Z,2.50
2022-09-01T13:01:09.224Z,2.40
2022-09-01T13:02:09.403Z,2.50
2022-09-01T13:03:09.180Z,3.00
2022-09-01T13:04:08.299Z,2.80
2022-09-01T13:05:08.842Z,2.50
2022-09-01T13:06:08.222Z,3.00
2022-09-01T13:07:09.011Z,2.50
2022-09-01T13:08:08.192Z,2.80
2022-09-01T13:09:08.163Z,2.90
2022-09-01T13:10:08.155Z,2.40
2022-09-01T13:11:08.146Z,2.80
2022-09-01T13:12:08.365Z,2.80
2022-09-01T13:13:08.581Z,2.90
2022-09-01T13:14:08.334Z,2.60
2022-09-01T13:15:08.187Z,2.80
2022-09-01T13:16:08.189Z,3.00
2022-09-01T13:17:13.873Z,2.60
2022-09-01T13:18:09.072Z,2.70
2022-09-01T13:19:11.567Z,2.40
2022-09-01T13:20:08.049Z,3.10
2022-09-01T13:21:08.113Z,3.40
2022-09-01T13:22:08.149Z,2.60
2022-09-01T13:23:08.822Z,2.60
2022-09-01T13:24:09.238Z,2.10
2022-09-01T13:25:08.018Z,2.50
2022-09-01T13:26:07.997Z,2.30